sensor_id;sensor_type;location;lat;lon;timestamp;temperature;humidity
20288;DHT22;10303;51.960;8.372;2022-09-27T00:03:54;14.70;99.90
20288;DHT22;10303;51.960;8.372;2022-09-27T00:06:27;14.80;99.90
20288;DHT22;10303;51.960;8.372;2022-09-27T00:08:55;14.70;99.90
20288;DHT22;10303;51.960;8.372;2022-09-27T00:11:26;14.80;99.90
20288;DHT22;10303;51.960;8.372;2022-09-27T00:14:20;14.80;99.90
20288;DHT22;10303;51.960;8.372;2022-09-27T00:16:51;14.80;99.90
20288;DHT22;10303;51.960;8.372;2022-09-27T00:19:26;15.70;99.90
20288;DHT22;10303;51.960;8.372;2022-09-27T00:21:52;14.80;99.90
20288;DHT22;10303;51.960;8.372;2022-09-27T00:24:20;14.90;99.90
20288;DHT22;10303;51.960;8.372;2022-09-27T00:26:48;14.90;99.90
20288;DHT22;10303;51.960;8.372;2022-09-27T00:29:26;14.90;99.90
20288;DHT22;10303;51.960;8.372;2022-09-27T00:35:48;14.90;99.90
20288;DHT22;10303;51.960;8.372;2022-09-27T00:38:14;14.90;99.90
20288;DHT22;10303;51.960;8.372;2022-09-27T00:40:40;14.90;99.90
20288;DHT22;10303;51.960;8.372;2022-09-27T00:43:22;14.90;99.90
20288;DHT22;10303;51.960;8.372;2022-09-27T00:46:07;14.90;99.90
20288;DHT22;10303;51.960;8.372;2022-09-27T00:48:35;14.90;99.90
20288;DHT22;10303;51.960;8.372;2022-09-27T00:51:04;14.90;99.90
20288;DHT22;10303;51.960;8.372;2022-09-27T00:53:58;14.90;99.90
20288;DHT22;10303;51.960;8.372;2022-09-27T00:56:28;15.00;99.90
20288;DHT22;10303;51.960;8.372;2022-09-27T00:59:06;15.00;99.90
20288;DHT22;10303;51.960;8.372;2022-09-27T01:01:36;15.00;99.90
20288;DHT22;10303;51.960;8.372;2022-09-27T01:04:11;15.00;99.90
20288;DHT22;10303;51.960;8.372;2022-09-27T01:06:39;15.00;99.90
20288;DHT22;10303;51.960;8.372;2022-09-27T01:09:07;15.00;99.90
20288;DHT22;10303;51.960;8.372;2022-09-27T01:11:45;15.00;99.90
20288;DHT22;10303;51.960;8.372;2022-09-27T01:42:58;14.60;99.90
20288;DHT22;10303;51.960;8.372;2022-09-27T01:46:20;14.60;99.90
20288;DHT22;10303;51.960;8.372;2022-09-27T01:52:53;14.50;99.90
20288;DHT22;10303;51.960;8.372;2022-09-27T01:59:00;14.40;99.90
20288;DHT22;10303;51.960;8.372;2022-09-27T02:02:18;14.30;99.90
20288;DHT22;10303;51.960;8.372;2022-09-27T02:05:57;14.20;99.90
20288;DHT22;10303;51.960;8.372;2022-09-27T02:12:26;14.30;99.90
20288;DHT22;10303;51.960;8.372;2022-09-27T02:15:06;14.20;99.90
20288;DHT22;10303;51.960;8.372;2022-09-27T02:18:29;13.60;99.90
20288;DHT22;10303;51.960;8.372;2022-09-27T02:21:04;14.20;99.90
20288;DHT22;10303;51.960;8.372;2022-09-27T02:23:47;13.40;99.90
20288;DHT22;10303;51.960;8.372;2022-09-27T02:26:38;14.10;99.90
20288;DHT22;10303;51.960;8.372;2022-09-27T02:29:38;14.10;99.90
20288;DHT22;10303;51.960;8.372;2022-09-27T02:32:25;14.10;99.90
20288;DHT22;10303;51.960;8.372;2022-09-27T02:34:52;14.10;99.90
20288;DHT22;10303;51.960;8.372;2022-09-27T02:37:25;14.00;99.90
20288;DHT22;10303;51.960;8.372;2022-09-27T02:39:52;14.00;99.90
20288;DHT22;10303;51.960;8.372;2022-09-27T02:42:18;14.10;99.90
20288;DHT22;10303;51.960;8.372;2022-09-27T02:44:49;14.40;99.90
20288;DHT22;10303;51.960;8.372;2022-09-27T02:58:22;13.50;99.90
20288;DHT22;10303;51.960;8.372;2022-09-27T03:04:58;13.90;99.90
20288;DHT22;10303;51.960;8.372;2022-09-27T03:07:38;13.90;99.90
20288;DHT22;10303;51.960;8.372;2022-09-27T03:10:06;14.00;99.90
20288;DHT22;10303;51.960;8.372;2022-09-27T03:12:40;13.90;99.90
20288;DHT22;10303;51.960;8.372;2022-09-27T03:15:07;13.70;99.90
20288;DHT22;10303;51.960;8.372;2022-09-27T03:17:59;13.80;99.90
20288;DHT22;10303;51.960;8.372;2022-09-27T03:20:40;12.40;99.90
20288;DHT22;10303;51.960;8.372;2022-09-27T03:23:09;13.80;99.90
20288;DHT22;10303;51.960;8.372;2022-09-27T03:25:35;13.70;99.90
20288;DHT22;10303;51.960;8.372;2022-09-27T03:28:02;13.70;99.90
20288;DHT22;10303;51.960;8.372;2022-09-27T03:30:34;13.70;99.90
20288;DHT22;10303;51.960;8.372;2022-09-27T03:33:55;13.70;99.90
20288;DHT22;10303;51.960;8.372;2022-09-27T03:36:33;13.70;99.90
20288;DHT22;10303;51.960;8.372;2022-09-27T03:39:03;13.70;99.90
20288;DHT22;10303;51.960;8.372;2022-09-27T03:41:29;13.60;99.90
20288;DHT22;10303;51.960;8.372;2022-09-27T03:43:55;13.60;99.90
20288;DHT22;10303;51.960;8.372;2022-09-27T03:46:22;13.70;99.90
20288;DHT22;10303;51.960;8.372;2022-09-27T03:48:51;13.60;99.90
20288;DHT22;10303;51.960;8.372;2022-09-27T03:51:17;13.70;99.90
20288;DHT22;10303;51.960;8.372;2022-09-27T03:53:44;13.60;99.90
20288;DHT22;10303;51.960;8.372;2022-09-27T03:56:22;13.60;99.90
20288;DHT22;10303;51.960;8.372;2022-09-27T03:58:52;13.60;99.90
20288;DHT22;10303;51.960;8.372;2022-09-27T04:01:19;13.60;99.90
20288;DHT22;10303;51.960;8.372;2022-09-27T04:03:56;13.50;99.90
20288;DHT22;10303;51.960;8.372;2022-09-27T04:06:32;13.60;99.90
20288;DHT22;10303;51.960;8.372;2022-09-27T04:09:09;14.00;99.90
20288;DHT22;10303;51.960;8.372;2022-09-27T04:11:58;13.60;99.90
20288;DHT22;10303;51.960;8.372;2022-09-27T04:14:25;13.50;99.90
20288;DHT22;10303;51.960;8.372;2022-09-27T04:17:13;13.70;99.90
20288;DHT22;10303;51.960;8.372;2022-09-27T04:20:01;13.60;99.90
20288;DHT22;10303;51.960;8.372;2022-09-27T04:22:29;13.60;99.90
20288;DHT22;10303;51.960;8.372;2022-09-27T04:24:55;13.60;99.90
20288;DHT22;10303;51.960;8.372;2022-09-27T04:27:28;13.50;99.90
20288;DHT22;10303;51.960;8.372;2022-09-27T04:29:54;13.60;99.90
20288;DHT22;10303;51.960;8.372;2022-09-27T04:32:44;13.50;99.90
20288;DHT22;10303;51.960;8.372;2022-09-27T04:35:46;13.50;99.90
20288;DHT22;10303;51.960;8.372;2022-09-27T04:38:34;13.40;99.90
20288;DHT22;10303;51.960;8.372;2022-09-27T04:41:02;13.40;99.90
20288;DHT22;10303;51.960;8.372;2022-09-27T04:43:35;13.40;99.90
20288;DHT22;10303;51.960;8.372;2022-09-27T04:46:02;13.30;99.90
20288;DHT22;10303;51.960;8.372;2022-09-27T04:54:09;13.10;99.90
20288;DHT22;10303;51.960;8.372;2022-09-27T04:59:31;13.20;99.90
20288;DHT22;10303;51.960;8.372;2022-09-27T05:02:07;13.20;99.90
20288;DHT22;10303;51.960;8.372;2022-09-27T05:04:57;13.20;99.90
20288;DHT22;10303;51.960;8.372;2022-09-27T05:07:33;13.20;99.90
20288;DHT22;10303;51.960;8.372;2022-09-27T05:10:05;13.30;99.90
20288;DHT22;10303;51.960;8.372;2022-09-27T05:12:32;13.30;99.90
20288;DHT22;10303;51.960;8.372;2022-09-27T05:15:06;13.20;99.90
20288;DHT22;10303;51.960;8.372;2022-09-27T05:17:32;13.30;99.90
20288;DHT22;10303;51.960;8.372;2022-09-27T05:20:20;13.30;99.90
20288;DHT22;10303;51.960;8.372;2022-09-27T05:23:18;13.30;99.90
20288;DHT22;10303;51.960;8.372;2022-09-27T05:25:47;13.10;99.90
20288;DHT22;10303;51.960;8.372;2022-09-27T05:28:13;13.00;99.90
20288;DHT22;10303;51.960;8.372;2022-09-27T05:30:39;13.00;99.90
20288;DHT22;10303;51.960;8.372;2022-09-27T05:33:40;13.10;99.90
20288;DHT22;10303;51.960;8.372;2022-09-27T05:49:10;13.10;99.90
20288;DHT22;10303;51.960;8.372;2022-09-27T05:55:11;13.10;99.90
20288;DHT22;10303;51.960;8.372;2022-09-27T05:57:37;13.10;99.90
20288;DHT22;10303;51.960;8.372;2022-09-27T06:00:36;13.00;99.90
20288;DHT22;10303;51.960;8.372;2022-09-27T06:23:36;13.00;99.90
20288;DHT22;10303;51.960;8.372;2022-09-27T06:33:00;13.10;99.90
20288;DHT22;10303;51.960;8.372;2022-09-27T06:35:34;13.00;99.90
20288;DHT22;10303;51.960;8.372;2022-09-27T06:38:05;11.80;99.90
20288;DHT22;10303;51.960;8.372;2022-09-27T06:40:35;12.90;99.90
20288;DHT22;10303;51.960;8.372;2022-09-27T06:49:58;13.00;99.90
20288;DHT22;10303;51.960;8.372;2022-09-27T06:55:26;12.90;99.90
20288;DHT22;10303;51.960;8.372;2022-09-27T06:58:01;12.50;99.90
20288;DHT22;10303;51.960;8.372;2022-09-27T07:01:20;12.60;99.90
20288;DHT22;10303;51.960;8.372;2022-09-27T07:04:30;13.00;99.90
20288;DHT22;10303;51.960;8.372;2022-09-27T07:10:34;13.00;99.90
20288;DHT22;10303;51.960;8.372;2022-09-27T07:20:29;13.10;99.90
20288;DHT22;10303;51.960;8.372;2022-09-27T07:23:23;13.10;99.90
20288;DHT22;10303;51.960;8.372;2022-09-27T07:29:08;13.10;99.90
20288;DHT22;10303;51.960;8.372;2022-09-27T07:37:56;13.40;99.90
20288;DHT22;10303;51.960;8.372;2022-09-27T07:40:35;13.20;99.90
20288;DHT22;10303;51.960;8.372;2022-09-27T07:48:36;13.30;99.90
20288;DHT22;10303;51.960;8.372;2022-09-27T07:51:19;13.30;99.90
20288;DHT22;10303;51.960;8.372;2022-09-27T07:53:53;13.30;99.90
20288;DHT22;10303;51.960;8.372;2022-09-27T07:56:44;13.50;99.90
20288;DHT22;10303;51.960;8.372;2022-09-27T07:59:55;13.60;99.90
20288;DHT22;10303;51.960;8.372;2022-09-27T08:03:16;13.60;99.90
20288;DHT22;10303;51.960;8.372;2022-09-27T08:05:53;13.70;99.90
20288;DHT22;10303;51.960;8.372;2022-09-27T08:08:22;13.50;99.90
20288;DHT22;10303;51.960;8.372;2022-09-27T08:31:23;13.70;99.90
20288;DHT22;10303;51.960;8.372;2022-09-27T08:34:03;13.90;99.90
20288;DHT22;10303;51.960;8.372;2022-09-27T08:41:00;13.90;99.90
20288;DHT22;10303;51.960;8.372;2022-09-27T09:26:12;14.70;99.90
20288;DHT22;10303;51.960;8.372;2022-09-27T09:42:32;15.20;99.90
20288;DHT22;10303;51.960;8.372;2022-09-27T09:57:39;15.40;99.90
20288;DHT22;10303;51.960;8.372;2022-09-27T10:03:33;15.60;99.90
20288;DHT22;10303;51.960;8.372;2022-09-27T10:05:59;15.70;99.90
20288;DHT22;10303;51.960;8.372;2022-09-27T10:08:26;15.50;99.90
20288;DHT22;10303;51.960;8.372;2022-09-27T10:11:47;15.60;99.90
20288;DHT22;10303;51.960;8.372;2022-09-27T10:14:24;15.60;99.90
20288;DHT22;10303;51.960;8.372;2022-09-27T10:17:05;15.20;99.90
20288;DHT22;10303;51.960;8.372;2022-09-27T10:19:44;15.00;99.90
20288;DHT22;10303;51.960;8.372;2022-09-27T10:22:38;14.80;99.90
20288;DHT22;10303;51.960;8.372;2022-09-27T10:25:57;14.60;99.90
20288;DHT22;10303;51.960;8.372;2022-09-27T10:34:45;14.30;99.90
20288;DHT22;10303;51.960;8.372;2022-09-27T10:37:18;14.20;99.90
20288;DHT22;10303;51.960;8.372;2022-09-27T10:49:33;13.90;99.90
20288;DHT22;10303;51.960;8.372;2022-09-27T10:52:34;13.90;99.90
20288;DHT22;10303;51.960;8.372;2022-09-27T11:30:55;14.90;99.90
20288;DHT22;10303;51.960;8.372;2022-09-27T11:40:27;15.30;99.90
20288;DHT22;10303;51.960;8.372;2022-09-27T11:55:03;15.70;99.90
20288;DHT22;10303;51.960;8.372;2022-09-27T12:10:40;15.40;99.90
20288;DHT22;10303;51.960;8.372;2022-09-27T12:29:32;15.50;99.90
20288;DHT22;10303;51.960;8.372;2022-09-27T12:44:33;15.20;99.90
20288;DHT22;10303;51.960;8.372;2022-09-27T13:12:20;15.40;99.90
20288;DHT22;10303;51.960;8.372;2022-09-27T13:18:28;15.50;99.90
20288;DHT22;10303;51.960;8.372;2022-09-27T13:21:57;15.70;99.90
20288;DHT22;10303;51.960;8.372;2022-09-27T13:24:41;15.70;99.90
20288;DHT22;10303;51.960;8.372;2022-09-27T13:46:55;15.40;99.90
20288;DHT22;10303;51.960;8.372;2022-09-27T13:49:46;15.60;99.90
20288;DHT22;10303;51.960;8.372;2022-09-27T13:56:04;15.60;99.90
20288;DHT22;10303;51.960;8.372;2022-09-27T14:01:41;15.60;99.90
20288;DHT22;10303;51.960;8.372;2022-09-27T14:04:34;15.60;99.90
20288;DHT22;10303;51.960;8.372;2022-09-27T14:07:11;15.70;99.90
20288;DHT22;10303;51.960;8.372;2022-09-27T14:09:48;15.60;99.90
20288;DHT22;10303;51.960;8.372;2022-09-27T14:12:31;15.50;99.90
20288;DHT22;10303;51.960;8.372;2022-09-27T14:18:10;15.60;99.90
20288;DHT22;10303;51.960;8.372;2022-09-27T14:20:40;15.60;99.90
20288;DHT22;10303;51.960;8.372;2022-09-27T14:24:31;15.50;99.90
20288;DHT22;10303;51.960;8.372;2022-09-27T14:27:36;15.60;99.90
20288;DHT22;10303;51.960;8.372;2022-09-27T14:30:29;15.50;99.90
20288;DHT22;10303;51.960;8.372;2022-09-27T14:33:29;15.40;99.90
20288;DHT22;10303;51.960;8.372;2022-09-27T14:36:29;15.20;99.90
20288;DHT22;10303;51.960;8.372;2022-09-27T14:39:23;15.00;99.90
20288;DHT22;10303;51.960;8.372;2022-09-27T14:41:59;15.00;99.90
20288;DHT22;10303;51.960;8.372;2022-09-27T14:44:26;15.10;99.90
20288;DHT22;10303;51.960;8.372;2022-09-27T14:47:18;15.20;99.90
20288;DHT22;10303;51.960;8.372;2022-09-27T14:50:18;15.20;99.90
20288;DHT22;10303;51.960;8.372;2022-09-27T14:52:49;15.30;99.90
20288;DHT22;10303;51.960;8.372;2022-09-27T14:55:21;15.10;99.90
20288;DHT22;10303;51.960;8.372;2022-09-27T14:58:10;15.00;99.90
20288;DHT22;10303;51.960;8.372;2022-09-27T15:00:45;15.00;99.90
20288;DHT22;10303;51.960;8.372;2022-09-27T15:03:23;15.00;99.90
20288;DHT22;10303;51.960;8.372;2022-09-27T15:05:53;14.90;99.90
20288;DHT22;10303;51.960;8.372;2022-09-27T15:08:48;14.80;99.90
20288;DHT22;10303;51.960;8.372;2022-09-27T15:11:16;14.90;99.90
20288;DHT22;10303;51.960;8.372;2022-09-27T16:06:47;14.50;99.90
20288;DHT22;10303;51.960;8.372;2022-09-27T16:12:22;14.50;99.90
20288;DHT22;10303;51.960;8.372;2022-09-27T16:21:54;14.00;99.90
20288;DHT22;10303;51.960;8.372;2022-09-27T16:24:52;14.60;99.90
20288;DHT22;10303;51.960;8.372;2022-09-27T16:32:58;14.40;99.90
20288;DHT22;10303;51.960;8.372;2022-09-27T16:38:40;14.40;99.90
20288;DHT22;10303;51.960;8.372;2022-09-27T16:41:07;14.40;99.90
20288;DHT22;10303;51.960;8.372;2022-09-27T16:43:33;14.40;99.90
20288;DHT22;10303;51.960;8.372;2022-09-27T16:46:04;14.30;99.90
20288;DHT22;10303;51.960;8.372;2022-09-27T16:48:32;14.40;99.90
20288;DHT22;10303;51.960;8.372;2022-09-27T16:51:14;14.40;99.90
20288;DHT22;10303;51.960;8.372;2022-09-27T16:54:02;14.40;99.90
20288;DHT22;10303;51.960;8.372;2022-09-27T16:56:34;14.40;99.90
20288;DHT22;10303;51.960;8.372;2022-09-27T16:59:01;14.40;99.90
20288;DHT22;10303;51.960;8.372;2022-09-27T17:01:30;14.40;99.90
20288;DHT22;10303;51.960;8.372;2022-09-27T17:03:56;14.50;99.90
20288;DHT22;10303;51.960;8.372;2022-09-27T17:06:22;14.50;99.90
20288;DHT22;10303;51.960;8.372;2022-09-27T17:08:49;14.50;99.90
20288;DHT22;10303;51.960;8.372;2022-09-27T17:11:16;14.50;99.90
20288;DHT22;10303;51.960;8.372;2022-09-27T17:13:43;14.60;99.90
20288;DHT22;10303;51.960;8.372;2022-09-27T17:16:11;14.50;99.90
20288;DHT22;10303;51.960;8.372;2022-09-27T17:18:38;14.50;99.90
20288;DHT22;10303;51.960;8.372;2022-09-27T17:21:06;14.50;99.90
20288;DHT22;10303;51.960;8.372;2022-09-27T17:23:34;14.50;99.90
20288;DHT22;10303;51.960;8.372;2022-09-27T17:26:21;14.50;99.90
20288;DHT22;10303;51.960;8.372;2022-09-27T17:29:15;14.50;99.90
20288;DHT22;10303;51.960;8.372;2022-09-27T17:31:42;14.50;99.90
20288;DHT22;10303;51.960;8.372;2022-09-27T17:34:12;14.50;99.90
20288;DHT22;10303;51.960;8.372;2022-09-27T17:36:40;14.50;99.90
20288;DHT22;10303;51.960;8.372;2022-09-27T17:39:13;14.50;99.90
20288;DHT22;10303;51.960;8.372;2022-09-27T17:41:44;14.40;99.90
20288;DHT22;10303;51.960;8.372;2022-09-27T17:44:15;14.40;99.90
20288;DHT22;10303;51.960;8.372;2022-09-27T17:46:48;14.40;99.90
20288;DHT22;10303;51.960;8.372;2022-09-27T17:49:35;14.40;99.90
20288;DHT22;10303;51.960;8.372;2022-09-27T17:52:21;14.40;99.90
20288;DHT22;10303;51.960;8.372;2022-09-27T17:54:55;14.40;99.90
20288;DHT22;10303;51.960;8.372;2022-09-27T17:57:23;14.40;99.90
20288;DHT22;10303;51.960;8.372;2022-09-27T17:59:49;14.30;99.90
20288;DHT22;10303;51.960;8.372;2022-09-27T18:02:16;14.30;99.90
20288;DHT22;10303;51.960;8.372;2022-09-27T18:04:45;14.30;99.90
20288;DHT22;10303;51.960;8.372;2022-09-27T18:07:13;14.30;99.90
20288;DHT22;10303;51.960;8.372;2022-09-27T18:09:41;14.30;99.90
20288;DHT22;10303;51.960;8.372;2022-09-27T18:12:08;14.20;99.90
20288;DHT22;10303;51.960;8.372;2022-09-27T18:14:34;14.20;99.90
20288;DHT22;10303;51.960;8.372;2022-09-27T18:17:01;14.20;99.90
20288;DHT22;10303;51.960;8.372;2022-09-27T18:19:28;14.20;99.90
20288;DHT22;10303;51.960;8.372;2022-09-27T18:21:54;14.10;99.90
20288;DHT22;10303;51.960;8.372;2022-09-27T18:24:20;14.20;99.90
20288;DHT22;10303;51.960;8.372;2022-09-27T18:26:46;14.10;99.90
20288;DHT22;10303;51.960;8.372;2022-09-27T18:29:15;14.10;99.90
20288;DHT22;10303;51.960;8.372;2022-09-27T18:31:43;14.10;99.90
20288;DHT22;10303;51.960;8.372;2022-09-27T18:34:10;14.00;99.90
20288;DHT22;10303;51.960;8.372;2022-09-27T18:36:37;14.00;99.90
20288;DHT22;10303;51.960;8.372;2022-09-27T18:39:05;14.00;99.90
20288;DHT22;10303;51.960;8.372;2022-09-27T18:41:34;14.00;99.90
20288;DHT22;10303;51.960;8.372;2022-09-27T18:44:03;13.90;99.90
20288;DHT22;10303;51.960;8.372;2022-09-27T18:46:31;13.90;99.90
20288;DHT22;10303;51.960;8.372;2022-09-27T18:49:00;13.90;99.90
20288;DHT22;10303;51.960;8.372;2022-09-27T18:51:28;13.90;99.90
20288;DHT22;10303;51.960;8.372;2022-09-27T18:54:06;13.80;99.90
20288;DHT22;10303;51.960;8.372;2022-09-27T18:56:35;13.80;99.90
20288;DHT22;10303;51.960;8.372;2022-09-27T18:59:04;13.80;99.90
20288;DHT22;10303;51.960;8.372;2022-09-27T19:01:36;13.80;99.90
20288;DHT22;10303;51.960;8.372;2022-09-27T19:04:08;13.80;99.90
20288;DHT22;10303;51.960;8.372;2022-09-27T19:06:38;13.80;99.90
20288;DHT22;10303;51.960;8.372;2022-09-27T19:09:05;13.70;99.90
20288;DHT22;10303;51.960;8.372;2022-09-27T19:11:33;13.80;99.90
20288;DHT22;10303;51.960;8.372;2022-09-27T19:14:00;13.70;99.90
20288;DHT22;10303;51.960;8.372;2022-09-27T19:16:28;13.70;99.90
20288;DHT22;10303;51.960;8.372;2022-09-27T19:18:55;13.70;99.90
20288;DHT22;10303;51.960;8.372;2022-09-27T19:21:24;13.70;99.90
20288;DHT22;10303;51.960;8.372;2022-09-27T19:23:52;13.70;99.90
20288;DHT22;10303;51.960;8.372;2022-09-27T19:26:21;13.60;99.90
20288;DHT22;10303;51.960;8.372;2022-09-27T19:28:50;13.60;99.90
20288;DHT22;10303;51.960;8.372;2022-09-27T19:31:20;13.60;99.90
20288;DHT22;10303;51.960;8.372;2022-09-27T19:33:49;13.70;99.90
20288;DHT22;10303;51.960;8.372;2022-09-27T19:36:17;13.60;99.90
20288;DHT22;10303;51.960;8.372;2022-09-27T19:38:44;13.60;99.90
20288;DHT22;10303;51.960;8.372;2022-09-27T19:41:12;13.60;99.90
20288;DHT22;10303;51.960;8.372;2022-09-27T19:43:41;13.50;99.90
20288;DHT22;10303;51.960;8.372;2022-09-27T19:46:17;13.50;99.90
20288;DHT22;10303;51.960;8.372;2022-09-27T19:48:46;13.50;99.90
20288;DHT22;10303;51.960;8.372;2022-09-27T19:51:21;13.50;99.90
20288;DHT22;10303;51.960;8.372;2022-09-27T19:53:50;13.50;99.90
20288;DHT22;10303;51.960;8.372;2022-09-27T19:56:17;13.50;99.90
20288;DHT22;10303;51.960;8.372;2022-09-27T19:58:45;13.50;99.90
20288;DHT22;10303;51.960;8.372;2022-09-27T20:01:14;13.50;99.90
20288;DHT22;10303;51.960;8.372;2022-09-27T20:03:43;13.50;99.90
20288;DHT22;10303;51.960;8.372;2022-09-27T20:06:12;13.40;99.90
20288;DHT22;10303;51.960;8.372;2022-09-27T20:08:40;13.40;99.90
20288;DHT22;10303;51.960;8.372;2022-09-27T20:11:12;13.40;99.90
20288;DHT22;10303;51.960;8.372;2022-09-27T20:13:39;13.40;99.90
20288;DHT22;10303;51.960;8.372;2022-09-27T20:16:10;13.40;99.90
20288;DHT22;10303;51.960;8.372;2022-09-27T20:18:38;13.30;99.90
20288;DHT22;10303;51.960;8.372;2022-09-27T20:21:07;13.30;99.90
20288;DHT22;10303;51.960;8.372;2022-09-27T20:23:33;13.30;99.90
20288;DHT22;10303;51.960;8.372;2022-09-27T20:26:19;13.20;99.90
20288;DHT22;10303;51.960;8.372;2022-09-27T20:28:51;13.20;99.90
20288;DHT22;10303;51.960;8.372;2022-09-27T20:31:21;13.20;99.90
20288;DHT22;10303;51.960;8.372;2022-09-27T20:33:49;13.20;99.90
20288;DHT22;10303;51.960;8.372;2022-09-27T20:36:19;13.20;99.90
20288;DHT22;10303;51.960;8.372;2022-09-27T20:39:00;13.10;99.90
20288;DHT22;10303;51.960;8.372;2022-09-27T20:41:37;13.10;99.90
20288;DHT22;10303;51.960;8.372;2022-09-27T20:44:07;13.10;99.90
20288;DHT22;10303;51.960;8.372;2022-09-27T20:46:36;13.10;99.90
20288;DHT22;10303;51.960;8.372;2022-09-27T20:49:09;13.00;99.90
20288;DHT22;10303;51.960;8.372;2022-09-27T20:51:40;13.00;99.90
20288;DHT22;10303;51.960;8.372;2022-09-27T20:54:09;13.00;99.90
20288;DHT22;10303;51.960;8.372;2022-09-27T20:56:47;13.00;99.90
20288;DHT22;10303;51.960;8.372;2022-09-27T20:59:20;12.90;99.90
20288;DHT22;10303;51.960;8.372;2022-09-27T21:01:48;12.90;99.90
20288;DHT22;10303;51.960;8.372;2022-09-27T21:04:17;12.90;99.90
20288;DHT22;10303;51.960;8.372;2022-09-27T21:06:45;12.90;99.90
20288;DHT22;10303;51.960;8.372;2022-09-27T21:09:13;12.90;99.90
20288;DHT22;10303;51.960;8.372;2022-09-27T21:11:47;12.90;99.90
20288;DHT22;10303;51.960;8.372;2022-09-27T21:14:16;12.80;99.90
20288;DHT22;10303;51.960;8.372;2022-09-27T21:16:41;12.80;99.90
20288;DHT22;10303;51.960;8.372;2022-09-27T21:19:08;12.80;99.90
20288;DHT22;10303;51.960;8.372;2022-09-27T21:21:34;12.90;99.90
20288;DHT22;10303;51.960;8.372;2022-09-27T21:24:00;12.80;99.90
20288;DHT22;10303;51.960;8.372;2022-09-27T21:26:29;12.80;99.90
20288;DHT22;10303;51.960;8.372;2022-09-27T21:28:58;12.80;99.90
20288;DHT22;10303;51.960;8.372;2022-09-27T21:31:29;12.80;99.90
20288;DHT22;10303;51.960;8.372;2022-09-27T21:34:00;12.80;99.90
20288;DHT22;10303;51.960;8.372;2022-09-27T21:36:36;12.80;99.90
20288;DHT22;10303;51.960;8.372;2022-09-27T21:39:07;12.70;99.90
20288;DHT22;10303;51.960;8.372;2022-09-27T21:41:35;12.80;99.90
20288;DHT22;10303;51.960;8.372;2022-09-27T21:44:03;12.80;99.90
20288;DHT22;10303;51.960;8.372;2022-09-27T21:46:30;12.80;99.90
20288;DHT22;10303;51.960;8.372;2022-09-27T21:48:57;12.80;99.90
20288;DHT22;10303;51.960;8.372;2022-09-27T21:51:26;12.80;99.90
20288;DHT22;10303;51.960;8.372;2022-09-27T21:53:59;12.80;99.90
20288;DHT22;10303;51.960;8.372;2022-09-27T21:56:31;12.70;99.90
20288;DHT22;10303;51.960;8.372;2022-09-27T21:58:59;12.80;99.90
20288;DHT22;10303;51.960;8.372;2022-09-27T22:01:30;12.80;99.90
20288;DHT22;10303;51.960;8.372;2022-09-27T22:03:58;12.80;99.90
20288;DHT22;10303;51.960;8.372;2022-09-27T22:06:30;12.80;99.90
20288;DHT22;10303;51.960;8.372;2022-09-27T22:08:58;12.80;99.90
20288;DHT22;10303;51.960;8.372;2022-09-27T22:11:28;12.80;99.90
20288;DHT22;10303;51.960;8.372;2022-09-27T22:13:56;12.80;99.90
20288;DHT22;10303;51.960;8.372;2022-09-27T22:16:22;12.80;99.90
20288;DHT22;10303;51.960;8.372;2022-09-27T22:18:53;12.80;99.90
20288;DHT22;10303;51.960;8.372;2022-09-27T22:21:22;12.80;99.90
20288;DHT22;10303;51.960;8.372;2022-09-27T22:23:58;12.90;99.90
20288;DHT22;10303;51.960;8.372;2022-09-27T22:26:28;12.80;99.90
20288;DHT22;10303;51.960;8.372;2022-09-27T22:28:56;12.90;99.90
20288;DHT22;10303;51.960;8.372;2022-09-27T22:31:24;12.90;99.90
20288;DHT22;10303;51.960;8.372;2022-09-27T22:33:59;12.90;99.90
20288;DHT22;10303;51.960;8.372;2022-09-27T22:36:27;12.90;99.90
20288;DHT22;10303;51.960;8.372;2022-09-27T22:38:55;12.90;99.90
20288;DHT22;10303;51.960;8.372;2022-09-27T22:41:21;12.90;99.90
20288;DHT22;10303;51.960;8.372;2022-09-27T22:43:48;12.90;99.90
20288;DHT22;10303;51.960;8.372;2022-09-27T22:46:14;12.90;99.90
20288;DHT22;10303;51.960;8.372;2022-09-27T22:48:40;13.00;99.90
20288;DHT22;10303;51.960;8.372;2022-09-27T22:51:07;12.90;99.90
20288;DHT22;10303;51.960;8.372;2022-09-27T22:53:34;12.90;99.90
20288;DHT22;10303;51.960;8.372;2022-09-27T23:24:00;12.80;99.90
20288;DHT22;10303;51.960;8.372;2022-09-27T23:26:28;11.90;99.90
20288;DHT22;10303;51.960;8.372;2022-09-27T23:28:57;12.80;99.90
20288;DHT22;10303;51.960;8.372;2022-09-27T23:31:29;12.80;99.90
20288;DHT22;10303;51.960;8.372;2022-09-27T23:34:00;12.80;99.90
20288;DHT22;10303;51.960;8.372;2022-09-27T23:36:28;12.80;99.90
20288;DHT22;10303;51.960;8.372;2022-09-27T23:38:57;12.80;99.90
20288;DHT22;10303;51.960;8.372;2022-09-27T23:41:24;12.80;99.90
20288;DHT22;10303;51.960;8.372;2022-09-27T23:43:50;12.80;99.90
20288;DHT22;10303;51.960;8.372;2022-09-27T23:46:18;12.80;99.90
20288;DHT22;10303;51.960;8.372;2022-09-27T23:48:45;12.80;99.90
20288;DHT22;10303;51.960;8.372;2022-09-27T23:51:12;12.80;99.90
20288;DHT22;10303;51.960;8.372;2022-09-27T23:53:38;12.80;99.90
20288;DHT22;10303;51.960;8.372;2022-09-27T23:56:16;12.80;99.90
20288;DHT22;10303;51.960;8.372;2022-09-27T23:58:44;12.70;99.90
